createdAt,value
2019-05-20T00:01:04.651Z,73.70
2019-05-20T00:03:34.573Z,73.60
2019-05-20T00:06:04.491Z,73.60
2019-05-20T00:08:34.380Z,73.60
2019-05-20T00:11:04.288Z,73.60
2019-05-20T00:13:34.308Z,73.60
2019-05-20T00:16:04.174Z,73.60
2019-05-20T00:18:34.129Z,73.50
2019-05-20T00:21:04.071Z,73.50
2019-05-20T00:23:34.037Z,74.20
2019-05-20T00:26:03.892Z,73.40
2019-05-20T00:28:34.016Z,73.50
2019-05-20T00:31:03.895Z,73.40
2019-05-20T00:33:33.842Z,73.30
2019-05-20T00:36:03.766Z,73.20
2019-05-20T00:38:33.614Z,73.20
2019-05-20T00:41:03.506Z,73.30
2019-05-20T00:43:33.351Z,73.20
2019-05-20T00:46:03.382Z,73.10
2019-05-20T00:48:33.169Z,73.10
2019-05-20T00:51:02.975Z,73.10
2019-05-20T00:53:32.922Z,73.10
2019-05-20T00:56:02.890Z,73.10
2019-05-20T00:58:32.750Z,73.00
2019-05-20T01:01:02.721Z,73.00
2019-05-20T01:03:32.602Z,73.00
2019-05-20T01:06:02.462Z,73.10
2019-05-20T01:08:32.390Z,73.10
2019-05-20T01:11:02.241Z,73.10
2019-05-20T01:13:32.179Z,73.00
2019-05-20T01:16:01.950Z,73.00
2019-05-20T01:18:31.814Z,72.90
2019-05-20T01:21:01.665Z,73.00
2019-05-20T01:23:31.455Z,72.90
2019-05-20T01:26:01.231Z,72.90
2019-05-20T01:28:31.086Z,72.80
2019-05-20T01:31:00.958Z,72.80
2019-05-20T01:33:30.897Z,72.80
2019-05-20T01:36:00.756Z,72.70
2019-05-20T01:38:31.538Z,72.70
2019-05-20T01:41:01.391Z,72.70
2019-05-20T01:43:31.269Z,72.70
2019-05-20T01:46:01.186Z,72.80
2019-05-20T01:48:32.110Z,72.70
2019-05-20T01:51:02.095Z,72.70
2019-05-20T01:53:31.950Z,72.60
2019-05-20T01:56:01.877Z,72.60
2019-05-20T01:58:31.778Z,72.80
2019-05-20T02:01:01.747Z,72.50
2019-05-20T02:03:32.543Z,72.60
2019-05-20T02:06:02.507Z,72.50
2019-05-20T02:08:32.365Z,72.40
2019-05-20T02:11:02.182Z,72.40
2019-05-20T02:14:09.554Z,72.50
2019-05-20T02:16:39.496Z,72.40
2019-05-20T02:19:09.434Z,72.30
2019-05-20T02:21:39.313Z,72.30
2019-05-20T02:24:09.200Z,72.30
2019-05-20T02:26:39.235Z,72.30
2019-05-20T02:29:09.145Z,72.30
2019-05-20T02:31:39.088Z,72.30
2019-05-20T02:34:09.053Z,72.20
2019-05-20T02:36:38.932Z,72.20
2019-05-20T02:39:08.882Z,72.20
2019-05-20T02:41:38.746Z,72.20
2019-05-20T02:44:08.624Z,72.20
2019-05-20T02:46:38.512Z,72.20
2019-05-20T02:49:08.378Z,72.20
2019-05-20T02:51:38.310Z,72.20
2019-05-20T02:54:08.204Z,72.10
2019-05-20T02:56:37.979Z,72.00
2019-05-20T02:59:07.846Z,72.00
2019-05-20T03:01:37.657Z,72.00
2019-05-20T03:04:12.283Z,72.00
2019-05-20T03:06:40.113Z,72.00
2019-05-20T03:09:12.298Z,71.90
2019-05-20T03:11:41.609Z,71.90
2019-05-20T03:14:11.486Z,71.90
2019-05-20T03:16:41.346Z,71.80
2019-05-20T03:19:30.480Z,71.90
2019-05-20T03:22:00.334Z,71.70
2019-05-20T03:24:30.235Z,71.80
2019-05-20T03:27:00.194Z,71.70
2019-05-20T03:29:30.043Z,71.80
2019-05-20T03:31:59.895Z,71.80
2019-05-20T03:34:45.402Z,71.70
2019-05-20T03:37:01.407Z,71.70
2019-05-20T03:39:31.401Z,71.70
2019-05-20T03:42:01.330Z,71.60
2019-05-20T03:44:31.186Z,71.60
2019-05-20T03:47:01.065Z,71.60
2019-05-20T03:49:31.945Z,71.60
2019-05-20T03:52:01.935Z,71.60
2019-05-20T03:54:31.852Z,72.60
2019-05-20T03:57:01.775Z,71.60
2019-05-20T03:59:31.627Z,71.50
2019-05-20T04:02:01.645Z,71.50
2019-05-20T04:04:31.484Z,71.50
2019-05-20T04:07:01.366Z,71.50
2019-05-20T04:09:31.297Z,71.50
2019-05-20T04:12:01.150Z,71.50
2019-05-20T04:14:31.074Z,71.20
2019-05-20T04:17:00.958Z,71.40
2019-05-20T04:19:30.884Z,71.40
2019-05-20T04:22:00.927Z,71.50
2019-05-20T04:24:30.879Z,71.40
2019-05-20T04:27:01.580Z,71.40
2019-05-20T04:29:31.421Z,71.40
2019-05-20T04:32:01.321Z,71.40
2019-05-20T04:34:31.182Z,71.40
2019-05-20T04:37:01.104Z,71.40
2019-05-20T04:39:30.892Z,72.20
2019-05-20T04:42:00.851Z,71.30
2019-05-20T04:44:30.667Z,71.30
2019-05-20T04:47:00.485Z,71.20
2019-05-20T04:49:30.408Z,71.20
2019-05-20T04:52:00.361Z,71.20
2019-05-20T04:54:30.226Z,71.20
2019-05-20T04:57:00.347Z,71.10
2019-05-20T04:59:30.205Z,71.10
2019-05-20T05:02:00.066Z,71.10
2019-05-20T05:04:29.946Z,71.20
2019-05-20T05:06:59.816Z,71.00
2019-05-20T05:09:29.718Z,71.00
2019-05-20T05:11:59.642Z,71.00
2019-05-20T05:14:29.497Z,71.00
2019-05-20T05:16:59.346Z,71.00
2019-05-20T05:19:29.359Z,70.90
2019-05-20T05:21:59.304Z,71.00
2019-05-20T05:24:29.169Z,71.00
2019-05-20T05:26:59.008Z,70.90
2019-05-20T05:29:28.859Z,70.90
2019-05-20T05:31:58.848Z,70.80
2019-05-20T05:34:28.718Z,70.80
2019-05-20T05:36:58.591Z,70.70
2019-05-20T05:39:28.537Z,70.70
2019-05-20T05:41:58.496Z,70.60
2019-05-20T05:44:28.475Z,70.70
2019-05-20T05:46:58.242Z,70.80
2019-05-20T05:49:29.098Z,71.00
2019-05-20T05:51:59.070Z,71.20
2019-05-20T05:54:28.913Z,71.20
2019-05-20T05:56:58.768Z,71.30
2019-05-20T05:59:28.662Z,70.90
2019-05-20T06:01:58.506Z,71.30
2019-05-20T06:04:28.474Z,71.40
2019-05-20T06:06:58.395Z,71.70
2019-05-20T06:09:28.265Z,71.70
2019-05-20T06:11:58.116Z,71.60
2019-05-20T06:14:28.481Z,71.80
2019-05-20T06:16:58.425Z,72.20
2019-05-20T06:19:28.301Z,72.50
2019-05-20T06:21:58.086Z,72.60
2019-05-20T06:24:27.963Z,72.60
2019-05-20T06:26:57.845Z,73.70
2019-05-20T06:29:27.849Z,73.60
2019-05-20T06:31:57.782Z,72.60
2019-05-20T06:34:27.710Z,72.80
2019-05-20T06:36:59.477Z,73.10
2019-05-20T06:39:29.328Z,73.20
2019-05-20T06:41:59.221Z,73.40
2019-05-20T06:44:29.071Z,73.50
2019-05-20T06:46:59.007Z,73.70
2019-05-20T06:49:28.886Z,74.00
2019-05-20T06:51:58.669Z,73.80
2019-05-20T06:54:28.637Z,73.80
2019-05-20T06:56:58.498Z,73.80
2019-05-20T06:59:28.360Z,73.80
2019-05-20T07:01:58.358Z,73.90
2019-05-20T07:04:28.298Z,74.10
2019-05-20T07:06:58.175Z,74.00
2019-05-20T07:09:28.043Z,74.40
2019-05-20T07:11:57.923Z,74.30
2019-05-20T07:14:27.778Z,74.40
2019-05-20T07:16:57.761Z,74.60
2019-05-20T07:19:27.549Z,74.60
2019-05-20T07:21:57.478Z,74.60
2019-05-20T07:24:27.432Z,74.80
2019-05-20T07:26:57.316Z,74.90
2019-05-20T07:29:27.186Z,74.80
2019-05-20T07:31:57.164Z,75.00
2019-05-20T07:34:27.082Z,74.70
2019-05-20T07:37:03.266Z,74.60
2019-05-20T07:39:28.573Z,74.70
2019-05-20T07:41:58.600Z,74.50
2019-05-20T07:44:28.475Z,74.40
2019-05-20T07:46:58.513Z,74.30
2019-05-20T07:49:28.363Z,74.30
2019-05-20T07:51:58.307Z,73.90
2019-05-20T07:54:28.166Z,74.20
2019-05-20T07:56:58.068Z,74.30
2019-05-20T07:59:27.988Z,74.30
2019-05-20T08:01:57.851Z,74.40
2019-05-20T08:04:27.790Z,74.60
2019-05-20T08:06:57.649Z,74.80
2019-05-20T08:09:27.638Z,74.60
2019-05-20T08:11:57.491Z,74.50
2019-05-20T08:14:27.278Z,74.40
2019-05-20T08:16:57.220Z,74.80
2019-05-20T08:19:27.162Z,74.90
2019-05-20T08:21:57.087Z,75.10
2019-05-20T08:24:27.110Z,75.20
2019-05-20T08:26:56.958Z,75.50
2019-05-20T08:29:26.869Z,75.70
2019-05-20T08:31:56.798Z,75.90
2019-05-20T08:34:26.747Z,75.90
2019-05-20T08:36:56.593Z,76.40
2019-05-20T08:39:26.530Z,76.80
2019-05-20T08:41:56.281Z,77.00
2019-05-20T08:44:26.154Z,77.40
2019-05-20T08:46:55.994Z,77.20
2019-05-20T08:49:26.021Z,77.40
2019-05-20T08:51:55.907Z,77.60
2019-05-20T08:54:25.723Z,77.10
2019-05-20T08:56:55.618Z,77.80
2019-05-20T08:59:25.483Z,76.70
2019-05-20T09:01:55.407Z,76.70
2019-05-20T09:04:25.107Z,76.60
2019-05-20T09:06:55.295Z,76.60
2019-05-20T09:09:25.305Z,76.60
2019-05-20T09:11:55.373Z,76.60
2019-05-20T09:14:25.303Z,76.50
2019-05-20T09:16:55.158Z,76.70
2019-05-20T09:19:25.017Z,76.70
2019-05-20T09:21:55.083Z,76.80
2019-05-20T09:24:24.928Z,76.70
2019-05-20T09:26:54.874Z,76.60
2019-05-20T09:29:24.659Z,76.60
2019-05-20T09:31:54.615Z,76.50
2019-05-20T09:34:25.509Z,76.40
2019-05-20T09:36:55.466Z,76.40
2019-05-20T09:39:25.328Z,76.50
2019-05-20T09:41:55.337Z,76.40
2019-05-20T09:44:25.182Z,76.20
2019-05-20T09:46:55.046Z,76.50
2019-05-20T09:49:25.091Z,76.20
2019-05-20T09:51:54.979Z,76.10
2019-05-20T09:54:24.828Z,76.10
2019-05-20T09:56:54.674Z,76.00
2019-05-20T09:59:40.332Z,76.60
2019-05-20T10:01:57.084Z,76.00
2019-05-20T10:04:27.093Z,75.80
2019-05-20T10:06:56.947Z,75.90
2019-05-20T10:09:26.797Z,76.10
2019-05-20T10:11:56.647Z,76.00
2019-05-20T10:14:26.521Z,75.80
2019-05-20T10:16:56.543Z,75.60
2019-05-20T10:19:26.470Z,75.70
2019-05-20T10:21:56.394Z,75.80
2019-05-20T10:24:26.281Z,75.80
2019-05-20T10:26:56.202Z,75.60
2019-05-20T10:29:26.198Z,75.50
2019-05-20T10:31:56.145Z,75.40
2019-05-20T10:34:26.065Z,75.40
2019-05-20T10:36:56.023Z,75.40
2019-05-20T10:39:25.790Z,75.30
2019-05-20T10:41:55.680Z,75.20
2019-05-20T10:44:25.574Z,75.30
2019-05-20T10:46:55.509Z,75.10
2019-05-20T10:49:25.451Z,75.20
2019-05-20T10:51:56.262Z,75.00
2019-05-20T10:54:26.111Z,75.00
2019-05-20T10:56:59.395Z,75.20
2019-05-20T10:59:27.578Z,75.20
2019-05-20T11:01:57.361Z,75.30
2019-05-20T11:04:27.286Z,75.40
2019-05-20T11:06:57.291Z,75.50
2019-05-20T11:09:27.138Z,75.50
2019-05-20T11:11:57.014Z,75.50
2019-05-20T11:14:26.947Z,75.40
2019-05-20T11:16:56.833Z,75.40
2019-05-20T11:19:26.830Z,75.20
2019-05-20T11:21:56.755Z,75.20
2019-05-20T11:24:26.541Z,75.00
2019-05-20T11:26:56.474Z,74.80
2019-05-20T11:29:26.326Z,74.80
2019-05-20T11:31:56.324Z,74.70
2019-05-20T11:34:26.162Z,74.50
2019-05-20T11:36:56.006Z,74.40
2019-05-20T11:39:33.139Z,74.40
2019-05-20T11:41:57.446Z,74.20
2019-05-20T11:44:27.243Z,74.20
2019-05-20T11:46:57.087Z,74.10
2019-05-20T11:49:29.275Z,74.00
2019-05-20T11:51:59.574Z,74.00
2019-05-20T11:54:29.485Z,74.80
2019-05-20T11:56:59.384Z,73.80
2019-05-20T11:59:29.382Z,73.80
2019-05-20T12:02:03.553Z,73.80
2019-05-20T12:04:30.843Z,73.70
2019-05-20T12:07:00.775Z,73.70
2019-05-20T12:09:30.690Z,73.60
2019-05-20T12:12:00.537Z,73.50
2019-05-20T12:14:30.414Z,73.40
2019-05-20T12:17:00.273Z,73.40
2019-05-20T12:19:30.129Z,73.40
2019-05-20T12:22:00.232Z,73.60
2019-05-20T12:24:30.175Z,73.60
2019-05-20T12:27:00.050Z,73.60
2019-05-20T12:29:29.907Z,73.60
2019-05-20T12:32:03.309Z,73.50
2019-05-20T12:34:31.447Z,73.80
2019-05-20T12:37:01.425Z,74.20
2019-05-20T12:39:31.460Z,74.40
2019-05-20T12:42:01.388Z,74.40
2019-05-20T12:44:31.335Z,74.10
2019-05-20T12:47:01.331Z,74.40
2019-05-20T12:49:31.348Z,74.50
2019-05-20T12:52:01.287Z,74.80
2019-05-20T12:54:31.237Z,75.00
2019-05-20T12:57:01.195Z,75.00
2019-05-20T12:59:31.137Z,75.00
2019-05-20T13:02:01.084Z,74.90
2019-05-20T13:04:30.994Z,75.00
2019-05-20T13:07:00.974Z,75.00
2019-05-20T13:09:30.939Z,75.00
2019-05-20T13:12:00.930Z,74.90
2019-05-20T13:14:44.310Z,75.00
2019-05-20T13:17:15.326Z,75.00
2019-05-20T13:19:45.172Z,75.00
2019-05-20T13:22:15.015Z,75.00
2019-05-20T13:24:44.866Z,75.00
2019-05-20T13:27:14.685Z,75.20
2019-05-20T13:29:44.619Z,75.20
2019-05-20T13:32:14.550Z,75.10
2019-05-20T13:34:45.174Z,75.00
2019-05-20T13:37:15.037Z,75.40
2019-05-20T13:39:44.893Z,75.20
2019-05-20T13:42:14.873Z,75.20
2019-05-20T13:44:44.733Z,75.20
2019-05-20T13:47:14.718Z,75.20
2019-05-20T13:49:44.591Z,75.30
2019-05-20T13:52:14.542Z,75.60
2019-05-20T13:54:44.494Z,75.30
2019-05-20T13:57:14.424Z,75.60
2019-05-20T13:59:44.279Z,75.60
2019-05-20T14:02:14.133Z,75.80
2019-05-20T14:04:44.080Z,75.80
2019-05-20T14:07:14.031Z,75.80
2019-05-20T14:09:43.996Z,76.00
2019-05-20T14:12:13.937Z,76.00
2019-05-20T14:14:43.941Z,76.10
2019-05-20T14:17:13.988Z,76.00
2019-05-20T14:19:43.946Z,75.90
2019-05-20T14:22:13.867Z,76.00
2019-05-20T14:24:43.876Z,75.90
2019-05-20T14:27:13.943Z,75.70
2019-05-20T14:29:43.893Z,75.70
2019-05-20T14:32:13.791Z,75.60
2019-05-20T14:34:43.786Z,75.60
2019-05-20T14:37:14.725Z,75.50
2019-05-20T14:39:44.757Z,75.40
2019-05-20T14:42:15.041Z,75.30
2019-05-20T14:44:44.924Z,75.40
2019-05-20T14:47:14.823Z,75.40
2019-05-20T14:49:45.708Z,75.60
2019-05-20T14:52:15.726Z,75.40
2019-05-20T14:54:45.616Z,75.30
2019-05-20T14:57:15.478Z,75.30
2019-05-20T14:59:45.486Z,74.70
2019-05-20T15:02:15.347Z,75.40
2019-05-20T15:04:45.273Z,75.40
2019-05-20T15:07:29.036Z,75.40
2019-05-20T15:09:46.810Z,75.30
2019-05-20T15:12:16.659Z,75.50
2019-05-20T15:14:46.704Z,75.60
2019-05-20T15:17:16.746Z,75.50
2019-05-20T15:19:46.594Z,75.30
2019-05-20T15:22:16.681Z,75.40
2019-05-20T15:24:47.630Z,75.30
2019-05-20T15:27:17.479Z,75.40
2019-05-20T15:29:47.340Z,75.20
2019-05-20T15:32:17.268Z,75.00
2019-05-20T15:34:47.127Z,75.20
2019-05-20T15:37:16.903Z,75.10
2019-05-20T15:39:46.754Z,75.10
2019-05-20T15:42:16.620Z,75.10
2019-05-20T15:44:46.685Z,75.80
2019-05-20T15:47:19.016Z,75.00
2019-05-20T15:49:48.338Z,75.30
2019-05-20T15:52:18.219Z,75.40
2019-05-20T15:55:36.712Z,75.60
2019-05-20T15:58:06.674Z,76.50
2019-05-20T16:00:36.628Z,75.30
2019-05-20T16:03:06.550Z,75.40
2019-05-20T16:05:36.482Z,75.50
2019-05-20T16:08:06.348Z,75.30
2019-05-20T16:10:36.385Z,75.40
2019-05-20T16:13:06.162Z,75.40
2019-05-20T16:15:36.163Z,75.50
2019-05-20T16:18:06.134Z,75.60
2019-05-20T16:20:36.082Z,75.50
2019-05-20T16:23:05.937Z,75.40
2019-05-20T16:25:35.786Z,75.50
2019-05-20T16:28:05.858Z,75.20
2019-05-20T16:30:35.767Z,75.40
2019-05-20T16:33:05.724Z,75.60
2019-05-20T16:35:35.799Z,75.80
2019-05-20T16:38:05.796Z,75.80
2019-05-20T16:40:35.786Z,75.80
2019-05-20T16:43:05.724Z,75.60
2019-05-20T16:45:36.895Z,75.70
2019-05-20T16:48:06.978Z,75.70
2019-05-20T16:50:36.854Z,75.60
2019-05-20T16:53:06.851Z,75.60
2019-05-20T16:55:36.807Z,75.60
2019-05-20T16:58:06.821Z,75.60
2019-05-20T17:00:36.815Z,75.50
2019-05-20T17:03:06.769Z,75.70
2019-05-20T17:05:36.658Z,75.70
2019-05-20T17:08:06.642Z,75.40
2019-05-20T17:10:36.598Z,75.70
2019-05-20T17:13:06.654Z,75.70
2019-05-20T17:15:36.617Z,75.80
2019-05-20T17:18:06.662Z,75.70
2019-05-20T17:20:36.595Z,75.40
2019-05-20T17:23:06.651Z,75.40
2019-05-20T17:25:36.723Z,75.40
2019-05-20T17:28:07.001Z,75.40
2019-05-20T17:30:44.985Z,75.60
2019-05-20T17:33:08.790Z,75.40
2019-05-20T17:35:38.842Z,75.50
2019-05-20T17:38:08.862Z,75.40
2019-05-20T17:40:38.931Z,75.40
2019-05-20T17:43:08.918Z,75.10
2019-05-20T17:45:38.882Z,75.00
2019-05-20T17:48:08.787Z,75.20
2019-05-20T17:50:38.738Z,75.20
2019-05-20T17:53:08.705Z,75.20
2019-05-20T17:55:38.592Z,75.20
2019-05-20T17:58:08.457Z,75.20
2019-05-20T18:00:38.443Z,75.20
2019-05-20T18:03:08.378Z,74.80
2019-05-20T18:05:38.319Z,74.90
2019-05-20T18:08:08.298Z,74.80
2019-05-20T18:10:38.314Z,74.80
2019-05-20T18:13:08.237Z,74.80
2019-05-20T18:15:38.262Z,74.90
2019-05-20T18:18:08.275Z,75.00
2019-05-20T18:20:38.282Z,75.30
2019-05-20T18:23:08.101Z,75.60
2019-05-20T18:25:38.074Z,75.70
2019-05-20T18:28:08.151Z,75.60
2019-05-20T18:30:38.451Z,75.20
2019-05-20T18:33:08.520Z,75.10
2019-05-20T18:35:41.349Z,75.20
2019-05-20T18:38:13.513Z,75.00
2019-05-20T18:40:43.626Z,75.60
2019-05-20T18:43:14.098Z,77.70
2019-05-20T18:45:44.123Z,77.80
2019-05-20T18:48:15.981Z,77.60
2019-05-20T18:50:47.470Z,76.60
2019-05-20T18:53:17.524Z,77.10
2019-05-20T18:55:47.784Z,77.00
2019-05-20T18:58:18.043Z,77.30
2019-05-20T19:00:48.365Z,77.40
2019-05-20T19:03:19.028Z,77.40
2019-05-20T19:05:49.479Z,77.40
2019-05-20T19:08:19.900Z,77.40
2019-05-20T19:10:50.083Z,77.30
2019-05-20T19:13:20.529Z,78.20
2019-05-20T19:15:50.878Z,77.70
2019-05-20T19:18:45.925Z,77.50
2019-05-20T19:21:31.547Z,77.40
2019-05-20T19:24:03.785Z,77.30
2019-05-20T19:26:34.655Z,77.30
2019-05-20T19:29:05.569Z,77.20
2019-05-20T19:31:35.430Z,77.70
2019-05-20T19:34:06.559Z,77.60
2019-05-20T19:36:36.601Z,77.50
2019-05-20T19:39:07.258Z,77.50
2019-05-20T19:41:38.826Z,77.60
2019-05-20T19:44:08.981Z,77.60
2019-05-20T19:46:38.962Z,77.70
2019-05-20T19:49:09.141Z,77.70
2019-05-20T19:51:39.170Z,77.80
2019-05-20T19:54:09.096Z,77.70
2019-05-20T19:56:39.050Z,77.60
2019-05-20T19:59:09.101Z,77.60
2019-05-20T20:01:38.973Z,77.40
2019-05-20T20:04:08.903Z,77.40
2019-05-20T20:06:38.830Z,77.30
2019-05-20T20:09:08.938Z,77.40
2019-05-20T20:11:38.998Z,77.40
2019-05-20T20:14:10.544Z,77.70
2019-05-20T20:16:40.540Z,77.70
2019-05-20T20:19:10.414Z,77.70
2019-05-20T20:21:40.361Z,77.80
2019-05-20T20:24:10.315Z,77.80
2019-05-20T20:26:41.259Z,77.70
2019-05-20T20:29:11.334Z,77.80
2019-05-20T20:31:41.332Z,77.80
2019-05-20T20:34:11.238Z,77.90
2019-05-20T20:36:41.109Z,78.20
2019-05-20T20:39:10.986Z,77.90
2019-05-20T20:41:40.980Z,77.80
2019-05-20T20:44:11.054Z,77.70
2019-05-20T20:46:40.996Z,77.40
2019-05-20T20:49:10.970Z,77.40
2019-05-20T20:51:40.972Z,77.40
2019-05-20T20:54:10.961Z,77.60
2019-05-20T20:56:40.772Z,77.90
2019-05-20T20:59:11.036Z,78.00
2019-05-20T21:01:41.267Z,78.10
2019-05-20T21:04:11.142Z,78.20
2019-05-20T21:06:41.054Z,78.20
2019-05-20T21:09:11.038Z,78.20
2019-05-20T21:11:40.953Z,79.10
2019-05-20T21:14:12.038Z,78.40
2019-05-20T21:16:42.101Z,78.40
2019-05-20T21:19:11.982Z,78.40
2019-05-20T21:21:41.849Z,78.40
2019-05-20T21:24:11.778Z,78.60
2019-05-20T21:26:41.702Z,78.50
2019-05-20T21:29:11.658Z,78.50
2019-05-20T21:31:41.626Z,78.50
2019-05-20T21:34:11.685Z,78.50
2019-05-20T21:36:47.911Z,79.40
2019-05-20T21:39:13.200Z,78.50
2019-05-20T21:41:43.055Z,78.40
2019-05-20T21:44:13.055Z,78.80
2019-05-20T21:46:42.838Z,78.40
2019-05-20T21:49:12.719Z,78.20
2019-05-20T21:51:42.578Z,78.10
2019-05-20T21:54:12.429Z,77.90
2019-05-20T21:56:42.306Z,79.10
2019-05-20T21:59:12.184Z,77.80
2019-05-20T22:01:42.218Z,77.60
2019-05-20T22:04:12.081Z,77.60
2019-05-20T22:06:42.029Z,77.70
2019-05-20T22:09:11.963Z,77.60
2019-05-20T22:11:41.844Z,77.60
2019-05-20T22:14:11.722Z,77.20
2019-05-20T22:16:41.677Z,77.80
2019-05-20T22:19:11.740Z,77.10
2019-05-20T22:22:06.621Z,76.60
2019-05-20T22:24:36.570Z,76.80
2019-05-20T22:27:06.526Z,76.60
2019-05-20T22:29:36.385Z,76.30
2019-05-20T22:32:06.265Z,76.20
2019-05-20T22:34:36.137Z,76.20
2019-05-20T22:37:06.062Z,75.90
2019-05-20T22:39:35.926Z,75.90
2019-05-20T22:42:05.918Z,75.80
2019-05-20T22:44:35.741Z,75.80
2019-05-20T22:47:06.640Z,75.80
2019-05-20T22:49:37.634Z,75.60
2019-05-20T22:52:07.442Z,75.70
2019-05-20T22:54:37.398Z,75.60
2019-05-20T22:57:07.289Z,75.50
2019-05-20T22:59:37.325Z,75.50
2019-05-20T23:02:07.195Z,75.50
2019-05-20T23:04:37.057Z,75.40
2019-05-20T23:07:07.206Z,75.40
2019-05-20T23:09:37.066Z,75.40
2019-05-20T23:12:07.027Z,75.20
2019-05-20T23:14:37.002Z,75.10
2019-05-20T23:17:06.879Z,75.10
2019-05-20T23:19:36.719Z,75.10
2019-05-20T23:22:06.565Z,75.10
2019-05-20T23:24:36.358Z,75.20
2019-05-20T23:27:06.279Z,75.00
2019-05-20T23:29:36.145Z,74.90
2019-05-20T23:32:06.078Z,74.90
2019-05-20T23:34:35.927Z,74.90
2019-05-20T23:37:05.857Z,74.80
2019-05-20T23:39:35.737Z,74.70
2019-05-20T23:42:05.698Z,74.70
2019-05-20T23:44:35.753Z,74.70
2019-05-20T23:47:05.607Z,74.70
2019-05-20T23:49:35.394Z,74.60
2019-05-20T23:52:05.245Z,74.70
2019-05-20T23:54:35.181Z,74.60
2019-05-20T23:57:05.057Z,75.40
2019-05-20T23:59:34.938Z,74.70
